Data for 05/27/2008

Time Sea-Level Adjusted Pressure Absolute Pressure Temperature Relative Humidity Dew Point   
(mb) (inHg) (mb) (inHg) (C) (F) (%) (C) (F)
00:05 1020 30.12 849 25.07 4.8 40.7 85 2.5 36.4
00:10 1020 30.12 849 25.07 4.8 40.6 85 2.5 36.4
00:15 1020 30.12 849 25.07 4.8 40.6 85 2.5 36.5
00:20 1020 30.12 849 25.07 4.8 40.6 85 2.4 36.4
00:25 1020 30.12 849 25.07 4.8 40.6 86 2.6 36.6
00:30 1020 30.12 849 25.07 4.7 40.5 85 2.5 36.5
00:35 1020 30.12 849 25.07 4.7 40.5 85 2.4 36.4
00:40 1020 30.12 849 25.07 4.8 40.7 85 2.5 36.5
00:45 1020 30.12 849 25.07 4.8 40.6 86 2.6 36.6
00:50 1020 30.12 849 25.07 4.7 40.5 86 2.6 36.7
00:55 1020 30.12 849 25.07 4.6 40.4 87 2.7 36.8
01:00 1020 30.12 849 25.07 4.6 40.2 87 2.6 36.7
01:05 1020 30.12 849 25.07 4.6 40.3 87 2.7 36.8
01:10 1020 30.12 849 25.07 4.6 40.3 86 2.5 36.6
01:15 1020 30.12 849 25.07 4.6 40.3 86 2.5 36.5
01:20 1020 30.12 849 25.07 4.6 40.3 86 2.5 36.5
01:25 1020 30.12 849 25.07 4.6 40.2 87 2.5 36.6
01:30 1020 30.12 849 25.07 4.5 40.2 87 2.6 36.6
01:35 1020 30.12 849 25.07 4.5 40.2 87 2.5 36.5
01:40 1020 30.12 849 25.07 4.5 40.1 87 2.5 36.6
01:45 1020 30.12 849 25.07 4.5 40.1 87 2.5 36.4
01:50 1020 30.12 849 25.07 4.5 40.1 86 2.4 36.3
01:55 1020 30.12 849 25.07 4.5 40.1 86 2.4 36.3
02:00 1020 30.12 849 25.07 4.5 40 86 2.4 36.2
02:05 1020 30.12 849 25.07 4.5 40.2 85 2.3 36.1
02:10 1020 30.12 849 25.07 4.5 40.1 86 2.3 36.2
02:15 1020 30.12 849 25.07 4.5 40 85 2.2 36
02:20 1020 30.12 849 25.07 4.5 40.2 85 2.2 36
02:25 1020 30.12 849 25.07 4.5 40.1 86 2.3 36.2
02:30 1020 30.12 849 25.07 4.3 39.8 86 2.2 36
02:35 1020 30.12 849 25.07 4.3 39.7 87 2.3 36.1
02:40 1020 30.12 849 25.07 4.3 39.7 87 2.2 36
02:45 1020 30.12 849 25.07 4.3 39.7 87 2.3 36.1
02:50 1020 30.12 849 25.07 4.3 39.7 87 2.3 36.1
02:55 1020 30.12 849 25.07 4.2 39.6 87 2.3 36.1
03:00 1020 30.12 849 25.07 4.2 39.5 87 2.3 36.1
03:05 1020 30.12 849 25.07 4.2 39.5 87 2.2 36
03:10 1020 30.12 849 25.07 4.2 39.5 87 2.2 36
03:15 1020 30.12 849 25.07 4.2 39.5 87 2.2 35.9
03:20 1020 30.12 849 25.07 4.1 39.4 87 2.2 35.9
03:25 1020 30.12 849 25.07 4 39.3 87 2.1 35.8
03:30 1020 30.12 849 25.07 4 39.2 88 2.1 35.8
03:35 1020 30.12 849 25.07 4 39.2 88 2.2 35.9
03:40 1020 30.12 849 25.07 4 39.2 88 2.1 35.8
03:45 1020 30.12 849 25.07 4 39.2 88 2.3 36.1
03:50 1020 30.12 849 25.07 4 39.1 89 2.3 36.1
03:55 1020 30.12 849 25.07 3.9 39.1 89 2.3 36.1
04:00 1020 30.12 849 25.07 3.9 39 89 2.2 36
04:05 1020 30.12 849 25.07 4 39.2 88 2.2 36
04:10 1020 30.12 849 25.07 4 39.3 88 2.3 36.1
04:15 1020 30.12 849 25.07 4 39.1 88 2.2 36
04:20 1020 30.12 849 25.07 3.9 39 89 2.3 36.1
04:25 1020 30.12 849 25.07 3.8 38.9 89 2.3 36.1
04:30 1020 30.12 849 25.07 3.8 38.8 90 2.2 36
04:35 1020 30.12 849 25.07 3.8 38.8 90 2.2 36
04:40 1020 30.12 849 25.07 3.8 38.8 89 2.2 36
04:45 1020 30.12 849 25.07 3.9 38.9 89 2.2 35.9
04:50 1020 30.12 849 25.07 3.9 39 89 2.2 35.9
04:55 1020 30.12 849 25.07 3.9 39 88 2.1 35.9
05:00 1020 30.12 850 25.1 3.9 39 88 2.1 35.8
05:05 1020 30.12 850 25.1 3.9 39.1 88 2.1 35.8
05:10 1021 30.15 850 25.1 4 39.1 88 2.1 35.9
05:15 1021 30.15 850 25.1 3.9 39 88 2.1 35.8
05:20 1021 30.15 850 25.1 3.9 39 88 2.2 35.9
05:25 1021 30.15 850 25.1 3.9 38.9 89 2.2 35.9
05:30 1021 30.15 850 25.1 3.8 38.8 89 2.2 35.9
05:35 1021 30.15 850 25.1 3.8 38.8 90 2.2 36
05:40 1021 30.15 850 25.1 3.8 38.8 90 2.3 36.1
05:45 1021 30.15 850 25.1 3.8 38.8 90 2.3 36.1
05:50 1020 30.12 850 25.1 3.8 38.8 90 2.2 36
05:55 1020 30.12 850 25.1 3.8 38.8 90 2.3 36.2
06:00 1020 30.12 850 25.1 3.7 38.7 91 2.3 36.1
06:05 1021 30.15 850 25.1 3.8 38.8 90 2.3 36.2
06:10 1021 30.15 850 25.1 3.8 38.8 90 2.4 36.2
06:15 1021 30.15 850 25.1 3.8 38.8 91 2.4 36.3
06:20 1021 30.15 850 25.1 3.8 38.8 91 2.4 36.3
06:25 1021 30.15 850 25.1 3.8 38.8 91 2.4 36.3
06:30 1021 30.15 850 25.1 3.7 38.7 91 2.4 36.4
06:35 1021 30.15 850 25.1 3.8 38.8 91 2.4 36.4
06:40 1021 30.15 850 25.1 3.8 38.8 91 2.5 36.4
06:45 1021 30.15 850 25.1 3.8 38.9 91 2.5 36.5
06:50 1021 30.15 850 25.1 3.9 39 91 2.5 36.5
06:55 1021 30.15 850 25.1 4 39.1 90 2.5 36.6
07:00 1021 30.15 850 25.1 4 39.2 90 2.5 36.5
07:05 1021 30.15 850 25.1 4.2 39.5 89 2.6 36.6
07:10 1021 30.15 850 25.1 4.2 39.6 89 2.5 36.6
07:15 1021 30.15 850 25.1 4.3 39.7 88 2.5 36.5
07:20 1021 30.15 850 25.1 4.3 39.7 88 2.5 36.4
07:25 1021 30.15 850 25.1 4.3 39.7 88 2.5 36.4
07:30 1021 30.15 850 25.1 4.2 39.6 88 2.4 36.3
07:35 1021 30.15 850 25.1 4.3 39.7 88 2.4 36.4
07:40 1021 30.15 850 25.1 4.3 39.7 88 2.5 36.5
07:45 1021 30.15 850 25.1 4.3 39.7 88 2.5 36.4
07:50 1021 30.15 850 25.1 4.3 39.7 88 2.5 36.5
07:55 1021 30.15 850 25.1 4.3 39.8 88 2.6 36.6
08:00 1021 30.15 850 25.1 4.4 39.9 88 2.5 36.5
08:05 1021 30.15 851 25.13 4.5 40.1 87 2.6 36.6
08:10 1021 30.15 850 25.1 4.6 40.2 87 2.6 36.6
08:15 1021 30.15 851 25.13 4.6 40.3 87 2.6 36.6
08:20 1021 30.15 850 25.1 4.6 40.2 87 2.6 36.7
08:25 1021 30.15 850 25.1 4.6 40.2 87 2.6 36.7
08:30 1021 30.15 850 25.1 4.6 40.3 87 2.6 36.7
08:35 1021 30.15 850 25.1 4.7 40.5 87 2.7 36.9
08:40 1021 30.15 850 25.1 4.9 40.7 86 2.8 37
08:45 1021 30.15 850 25.1 4.9 40.9 86 2.7 36.9
08:50 1021 30.15 850 25.1 5 41.1 85 2.8 37
08:55 1021 30.15 850 25.1 5.1 41.3 85 2.9 37.1
09:00 1021 30.15 850 25.1 5.2 41.4 85 2.9 37.2
09:05 1021 30.15 851 25.13 5.2 41.4 85 2.9 37.3
09:10 1021 30.15 851 25.13 5.4 41.7 84 2.9 37.3
09:15 1021 30.15 851 25.13 5.4 41.8 84 3 37.4
09:20 1021 30.15 851 25.13 5.5 41.9 84 3 37.3
09:25 1021 30.15 851 25.13 5.4 41.7 84 3 37.3
09:30 1021 30.15 850 25.1 5.4 41.7 84 2.9 37.2
09:35 1021 30.15 851 25.13 5.5 41.8 84 3.1 37.5
09:40 1021 30.15 851 25.13 5.5 41.8 84 3 37.5
09:45 1021 30.15 851 25.13 5.4 41.8 85 3 37.4
09:50 1021 30.15 851 25.13 5.6 42.1 84 3.1 37.5
09:55 1021 30.15 851 25.13 5.5 42 84 3 37.4
10:00 1021 30.15 851 25.13 5.5 41.8 84 3 37.3
10:05 1021 30.15 851 25.13 5.6 42 84 3.1 37.5
10:10 1021 30.15 850 25.1 5.6 42.1 84 3 37.5
10:15 1021 30.15 850 25.1 5.7 42.2 82 2.9 37.2
10:20 1021 30.15 850 25.1 5.8 42.4 83 3 37.4
10:25 1021 30.15 850 25.1 6 42.8 82 3.1 37.5
10:30 1021 30.15 850 25.1 6.3 43.4 80 3.2 37.8
10:35 1021 30.15 850 25.1 6.5 43.6 80 3.3 37.9
10:40 1021 30.15 850 25.1 6.5 43.7 80 3.3 38
10:45 1021 30.15 850 25.1 6.2 43.2 81 3.2 37.8
10:50 1021 30.15 850 25.1 6.3 43.3 81 3.2 37.8
10:55 1021 30.15 850 25.1 6.3 43.4 80 3.2 37.7
11:00 1021 30.15 850 25.1 6.3 43.4 81 3.2 37.8
11:05 1021 30.15 851 25.13 6.4 43.5 79 3.1 37.5
11:10 1021 30.15 851 25.13 6.5 43.6 80 3.3 37.9
11:15 1021 30.15 851 25.13 6.5 43.6 79 3.2 37.7
11:20 1021 30.15 850 25.1 6.6 43.8 78 3.1 37.5
11:25 1021 30.15 851 25.13 6.8 44.2 79 3.4 38.1
11:30 1021 30.15 850 25.1 6.8 44.3 79 3.4 38.1
11:35 1021 30.15 850 25.1 6.8 44.2 79 3.3 38
11:40 1021 30.15 850 25.1 7 44.6 78 3.4 38.1
11:45 1021 30.15 850 25.1 7 44.6 78 3.5 38.3
11:50 1021 30.15 850 25.1 7.2 45 78 3.7 38.7
11:55 1021 30.15 850 25.1 7.2 44.9 78 3.7 38.6
12:00 1021 30.15 850 25.1 7.2 44.9 78 3.5 38.4
12:05 1021 30.15 850 25.1 7.2 44.9 78 3.6 38.5
12:10 1021 30.15 850 25.1 7.2 45 78 3.6 38.5
12:15 1021 30.15 850 25.1 7.3 45.1 78 3.7 38.7
12:20 1021 30.15 850 25.1 7.3 45.2 77 3.6 38.4
12:25 1021 30.15 850 25.1 7.4 45.3 76 3.4 38.2
12:30 1021 30.15 850 25.1 7.7 45.9 76 3.7 38.7
12:35 1021 30.15 850 25.1 8.1 46.6 74 3.7 38.7
12:40 1021 30.15 850 25.1 7.8 46.1 75 3.7 38.7
12:45 1021 30.15 850 25.1 7.5 45.5 75 3.4 38
12:50 1021 30.15 850 25.1 7.8 46 73 3.3 37.9
12:55 1021 30.15 850 25.1 8.3 46.9 72 3.6 38.4
13:00 1021 30.15 850 25.1 8.2 46.8 73 3.6 38.5
13:05 1021 30.15 850 25.1 8.1 46.5 73 3.6 38.4
13:10 1021 30.15 850 25.1 8.5 47.3 73 3.9 39.1
13:15 1021 30.15 850 25.1 8.7 47.7 73 4.1 39.4
13:20 1021 30.15 850 25.1 8.9 48 72 4.1 39.4
13:25 1021 30.15 850 25.1 9.4 48.9 69 4 39.1
13:30 1021 30.15 850 25.1 9.2 48.5 70 4 39.2
13:35 1021 30.15 850 25.1 9.4 48.9 70 4.2 39.6
13:40 1021 30.15 850 25.1 9.1 48.3 72 4.3 39.7
13:45 1021 30.15 850 25.1 9.2 48.5 70 4 39.2
13:50 1021 30.15 850 25.1 9.4 48.9 69 4 39.1
13:55 1021 30.15 850 25.1 9.7 49.5 68 4.1 39.5
14:00 1021 30.15 850 25.1 9.7 49.4 69 4.2 39.6
14:05 1021 30.15 850 25.1 9.3 48.7 71 4.4 39.9
14:10 1021 30.15 850 25.1 8.7 47.6 73 4.2 39.5
14:15 1021 30.15 850 25.1 8.6 47.4 74 4.2 39.6
14:20 1021 30.15 850 25.1 8.7 47.6 74 4.4 39.9
14:25 1021 30.15 850 25.1 8.7 47.7 74 4.3 39.7
14:30 1021 30.15 850 25.1 8.1 46.5 76 4 39.3
14:35 1021 30.15 850 25.1 8.8 47.8 74 4.4 40
14:40 1021 30.15 850 25.1 8.9 48 74 4.6 40.3
14:45 1021 30.15 850 25.1 9 48.2 73 4.4 40
14:50 1021 30.15 850 25.1 8.7 47.7 73 4.2 39.6
14:55 1021 30.15 850 25.1 8.5 47.3 75 4.3 39.7
15:00 1021 30.15 850 25.1 8.5 47.2 74 4.1 39.4
15:05 1021 30.15 850 25.1 8.3 46.9 74 4 39.2
15:10 1021 30.15 850 25.1 8.5 47.2 75 4.3 39.7
15:15 1021 30.15 850 25.1 8.4 47.2 74 4.1 39.4
15:20 1021 30.15 850 25.1 8.4 47.1 75 4.3 39.7
15:25 1021 30.15 850 25.1 8.2 46.8 76 4.3 39.7
15:30 1021 30.15 850 25.1 8.1 46.6 75 4 39.2
15:35 1021 30.15 850 25.1 8.2 46.8 75 4 39.3
15:40 1021 30.15 850 25.1 8.5 47.4 73 4 39.3
15:45 1020 30.12 850 25.1 8.8 47.9 73 4.3 39.7
15:50 1021 30.15 850 25.1 8.6 47.4 74 4.3 39.7
15:55 1020 30.12 850 25.1 8.7 47.7 75 4.6 40.3
16:00 1020 30.12 850 25.1 8.5 47.3 75 4.4 39.9
16:05 1020 30.12 850 25.1 8.2 46.7 76 4.2 39.5
16:10 1020 30.12 850 25.1 8.2 46.8 75 4 39.2
16:15 1020 30.12 850 25.1 8.1 46.7 75 4 39.2
16:20 1020 30.12 850 25.1 8.2 46.7 75 4.1 39.3
16:25 1020 30.12 850 25.1 8.2 46.7 75 4 39.2
16:30 1020 30.12 849 25.07 8.1 46.5 75 3.9 39
16:35 1020 30.12 850 25.1 8.2 46.7 75 4.1 39.4
16:40 1020 30.12 850 25.1 8.6 47.5 74 4.3 39.7
16:45 1020 30.12 850 25.1 8.8 47.8 74 4.5 40.1
16:50 1020 30.12 849 25.07 8.5 47.3 74 4.2 39.5
16:55 1020 30.12 849 25.07 8.6 47.5 74 4.2 39.5
17:00 1020 30.12 849 25.07 8.4 47.1 74 4 39.2
17:05 1020 30.12 849 25.07 8.2 46.8 74 3.8 38.9
17:10 1020 30.12 849 25.07 8.3 46.9 74 3.9 39.1
17:15 1020 30.12 849 25.07 8 46.4 76 4.1 39.3
17:20 1020 30.12 849 25.07 7.8 46.1 76 3.9 38.9
17:25 1020 30.12 849 25.07 7.7 45.8 76 3.7 38.7
17:30 1020 30.12 849 25.07 7.7 45.8 76 3.8 38.8
17:35 1020 30.12 849 25.07 8 46.4 75 3.9 39
17:40 1020 30.12 849 25.07 7.9 46.2 76 3.9 39
17:45 1020 30.12 849 25.07 8 46.4 75 3.8 38.8
17:50 1020 30.12 849 25.07 7.8 46 77 4 39.1
17:55 1020 30.12 849 25.07 7.9 46.1 77 4 39.2
18:00 1020 30.12 849 25.07 7.4 45.4 77 3.7 38.6
18:05 1020 30.12 849 25.07 7.6 45.6 76 3.7 38.7
18:10 1020 30.12 849 25.07 7.7 45.8 76 3.7 38.6
18:15 1020 30.12 849 25.07 7.7 45.9 75 3.6 38.5
18:20 1020 30.12 849 25.07 7.8 46.1 75 3.7 38.7
18:25 1020 30.12 849 25.07 7.7 45.8 76 3.7 38.7
18:30 1020 30.12 849 25.07 7.6 45.6 76 3.7 38.6
18:35 1020 30.12 849 25.07 7.4 45.3 77 3.7 38.6
18:40 1020 30.12 849 25.07 7.5 45.4 77 3.6 38.5
18:45 1020 30.12 849 25.07 7.3 45.2 77 3.6 38.6
18:50 1020 30.12 849 25.07 7.2 45 78 3.6 38.5
18:55 1020 30.12 849 25.07 7.3 45.1 78 3.6 38.5
19:00 1020 30.12 849 25.07 7.2 44.9 78 3.6 38.4
19:05 1020 30.12 849 25.07 7.1 44.7 78 3.6 38.4
19:10 1020 30.12 849 25.07 7.2 44.9 78 3.6 38.5
19:15 1020 30.12 849 25.07 6.9 44.4 80 3.6 38.5
19:20 1020 30.12 849 25.07 6.6 43.9 80 3.5 38.2
19:25 1020 30.12 849 25.07 6.5 43.7 81 3.5 38.2
19:30 1020 30.12 849 25.07 6.4 43.4 81 3.3 38
19:35 1020 30.12 849 25.07 6.3 43.4 81 3.4 38.1
19:40 1020 30.12 849 25.07 6.3 43.3 82 3.4 38.1
19:45 1020 30.12 849 25.07 6.2 43.1 82 3.3 37.9
19:50 1020 30.12 849 25.07 6.1 42.9 83 3.3 38
19:55 1020 30.12 849 25.07 5.9 42.7 83 3.3 37.9
20:00 1020 30.12 849 25.07 5.9 42.6 84 3.3 38
20:05 1020 30.12 849 25.07 5.8 42.4 84 3.3 37.9
20:10 1020 30.12 850 25.1 5.7 42.2 84 3.3 37.9
20:15 1020 30.12 850 25.1 5.6 42.1 84 3.2 37.7
20:20 1020 30.12 850 25.1 5.5 42 85 3.2 37.7
20:25 1020 30.12 850 25.1 5.5 41.8 85 3.2 37.7
20:30 1020 30.12 850 25.1 5.4 41.7 85 3.1 37.7
20:35 1020 30.12 850 25.1 5.3 41.5 86 3.1 37.6
20:40 1020 30.12 850 25.1 5.3 41.5 86 3.1 37.6
20:45 1020 30.12 850 25.1 5.2 41.4 86 3.1 37.6
20:50 1020 30.12 850 25.1 5.2 41.3 87 3.1 37.6
20:55 1020 30.12 850 25.1 5.1 41.1 87 3.1 37.5
21:00 1020 30.12 850 25.1 5 41 87 3 37.3
21:05 1020 30.12 849 25.07 4.9 40.8 87 2.9 37.2
21:10 1020 30.12 850 25.1 4.8 40.7 87 2.9 37.3
21:15 1020 30.12 850 25.1 4.8 40.6 88 2.9 37.3
21:20 1020 30.12 850 25.1 4.7 40.5 88 2.9 37.3
21:25 1020 30.12 850 25.1 4.6 40.4 88 2.9 37.2
21:30 1020 30.12 850 25.1 4.6 40.3 89 2.9 37.2
21:35 1020 30.12 850 25.1 4.5 40.1 89 2.8 37.1
21:40 1020 30.12 850 25.1 4.5 40 89 2.8 37
21:45 1020 30.12 850 25.1 4.4 39.9 89 2.8 37
21:50 1020 30.12 850 25.1 4.3 39.8 89 2.7 36.9
21:55 1020 30.12 849 25.07 4.3 39.8 89 2.7 36.9
22:00 1020 30.12 849 25.07 4.3 39.7 89 2.7 36.9
22:05 1020 30.12 849 25.07 4.3 39.7 90 2.7 36.9
22:10 1020 30.12 849 25.07 4.3 39.7 90 2.7 36.9
22:15 1020 30.12 849 25.07 4.3 39.7 90 2.7 36.9
22:20 1020 30.12 849 25.07 4.2 39.6 90 2.7 36.9
22:25 1020 30.12 849 25.07 4.2 39.5 90 2.6 36.7
22:30 1020 30.12 849 25.07 4.2 39.6 89 2.6 36.7
22:35 1020 30.12 849 25.07 4.2 39.6 90 2.7 36.8
22:40 1020 30.12 849 25.07 4.2 39.6 89 2.6 36.8
22:45 1020 30.12 849 25.07 4.2 39.6 90 2.7 36.8
22:50 1020 30.12 849 25.07 4.2 39.5 90 2.6 36.7
22:55 1020 30.12 849 25.07 4.2 39.5 90 2.6 36.8
23:00 1020 30.12 849 25.07 4.2 39.5 90 2.7 36.8
23:05 1020 30.12 849 25.07 4.2 39.5 90 2.7 36.8
23:10 1020 30.12 849 25.07 4.1 39.5 90 2.6 36.8
23:15 1020 30.12 849 25.07 4.2 39.5 90 2.7 36.8
23:20 1020 30.12 849 25.07 4.2 39.6 90 2.7 36.8
23:25 1020 30.12 849 25.07 4.3 39.7 89 2.7 36.8
23:30 1020 30.12 849 25.07 4.3 39.7 89 2.7 36.8
23:35 1020 30.12 849 25.07 4.3 39.7 89 2.6 36.7
23:40 1020 30.12 849 25.07 4.3 39.8 89 2.7 36.8
23:45 1020 30.12 849 25.07 4.2 39.6 89 2.7 36.8
23:50 1020 30.12 849 25.07 4.2 39.5 90 2.7 36.8
23:55 1020 30.12 849 25.07 4.1 39.3 90 2.6 36.7
24:00 1020 30.12 849 25.07 4 39.2 90 2.6 36.7